createdAt,value
2022-09-28T00:01:17.806Z,98415.06
2022-09-28T00:03:48.098Z,98409.22
2022-09-28T00:06:19.640Z,98417.91
2022-09-28T00:08:50.270Z,98416.69
2022-09-28T00:11:20.858Z,98425.81
2022-09-28T00:13:51.602Z,98418.06
2022-09-28T00:16:21.978Z,98420.50
2022-09-28T00:18:51.576Z,98417.03
2022-09-28T00:21:22.220Z,98407.72
2022-09-28T00:24:12.288Z,98399.56
2022-09-28T00:26:41.825Z,98402.72
2022-09-28T00:29:16.611Z,98397.31
2022-09-28T00:31:44.835Z,98401.28
2022-09-28T00:34:14.603Z,98401.28
2022-09-28T00:36:45.705Z,98395.06
2022-09-28T00:39:15.089Z,98390.59
2022-09-28T00:41:43.225Z,98387.56
2022-09-28T00:44:39.187Z,98390.78
2022-09-28T00:47:35.481Z,98388.59
2022-09-28T00:50:09.957Z,98385.97
2022-09-28T00:52:43.800Z,98394.22
2022-09-28T00:55:16.745Z,98384.53
2022-09-28T00:57:50.131Z,98377.59
2022-09-28T01:00:18.265Z,98383.47
2022-09-28T01:02:47.522Z,98383.16
2022-09-28T01:05:19.082Z,98385.53
2022-09-28T01:07:49.398Z,98374.66
2022-09-28T01:10:17.510Z,98384.41
2022-09-28T01:12:45.668Z,98384.47
2022-09-28T01:15:14.789Z,98386.78
2022-09-28T01:17:57.866Z,98378.28
2022-09-28T01:20:40.405Z,98375.69
2022-09-28T01:24:09.723Z,98372.22
2022-09-28T01:26:57.735Z,98373.09
2022-09-28T01:29:37.009Z,98374.31
2022-09-28T01:32:16.598Z,98370.50
2022-09-28T01:34:54.013Z,98369.75
2022-09-28T01:37:25.344Z,98368.19
2022-09-28T01:39:57.072Z,98375.59
2022-09-28T01:42:31.719Z,98376.78
2022-09-28T01:45:16.166Z,98370.97
2022-09-28T01:47:47.434Z,98367.47
2022-09-28T01:50:21.893Z,98365.50
2022-09-28T01:52:54.899Z,98365.94
2022-09-28T01:55:30.995Z,98364.78
2022-09-28T01:58:04.809Z,98367.53
2022-09-28T02:00:35.885Z,98362.09
2022-09-28T02:03:09.782Z,98355.09
2022-09-28T02:05:40.657Z,98357.06
2022-09-28T02:08:14.553Z,98366.41
2022-09-28T02:10:45.065Z,98371.53
2022-09-28T02:13:19.924Z,98374.59
2022-09-28T02:15:54.913Z,98376.56
2022-09-28T02:18:23.192Z,98381.72
2022-09-28T02:20:57.977Z,98383.31
2022-09-28T02:23:28.336Z,98390.00
2022-09-28T02:26:03.425Z,98395.88
2022-09-28T02:28:32.787Z,98394.72
2022-09-28T02:31:01.800Z,98394.34
2022-09-28T02:33:35.235Z,98394.47
2022-09-28T02:36:04.653Z,98396.09
2022-09-28T02:38:33.078Z,98399.66
2022-09-28T02:41:06.815Z,98406.69
2022-09-28T02:43:51.395Z,98403.59
2022-09-28T02:46:31.606Z,98400.91
2022-09-28T02:49:23.406Z,98388.50
2022-09-28T02:52:07.118Z,98387.75
2022-09-28T02:54:53.055Z,98392.47
2022-09-28T02:57:35.733Z,98383.06
2022-09-28T03:00:10.318Z,98383.16
2022-09-28T03:02:50.858Z,98382.00
2022-09-28T03:05:23.864Z,98377.34
2022-09-28T03:07:58.853Z,98374.59
2022-09-28T03:10:35.885Z,98383.97
2022-09-28T03:13:05.677Z,98391.34
2022-09-28T03:15:37.200Z,98396.44
2022-09-28T03:18:06.008Z,98397.25
2022-09-28T03:20:35.295Z,98406.59
2022-09-28T03:23:23.699Z,98407.03
2022-09-28T03:25:51.363Z,98399.66
2022-09-28T03:28:19.677Z,98397.72
2022-09-28T03:30:49.010Z,98402.78
2022-09-28T03:33:17.034Z,98406.97
2022-09-28T03:35:48.332Z,98402.69
2022-09-28T03:38:17.052Z,98408.53
2022-09-28T03:40:45.555Z,98405.47
2022-09-28T03:43:13.646Z,98409.44
2022-09-28T03:45:42.007Z,98412.16
2022-09-28T03:48:11.355Z,98409.44
2022-09-28T03:50:39.359Z,98422.34
2022-09-28T03:53:07.322Z,98421.59
2022-09-28T03:55:35.436Z,98415.41
2022-09-28T03:58:03.416Z,98420.91
2022-09-28T04:00:31.425Z,98420.94
2022-09-28T04:02:59.455Z,98420.56
2022-09-28T04:05:28.875Z,98420.59
2022-09-28T04:07:57.933Z,98421.00
2022-09-28T04:10:26.435Z,98417.09
2022-09-28T04:12:56.204Z,98413.25
2022-09-28T04:15:24.959Z,98425.31
2022-09-28T04:17:53.243Z,98423.78
2022-09-28T04:20:22.146Z,98421.78
2022-09-28T04:22:51.782Z,98426.47
2022-09-28T04:25:19.738Z,98431.88
2022-09-28T04:28:05.154Z,98439.72
2022-09-28T04:30:33.501Z,98434.31
2022-09-28T04:33:01.573Z,98433.91
2022-09-28T04:35:29.550Z,98435.09
2022-09-28T04:37:59.136Z,98438.22
2022-09-28T04:40:27.151Z,98449.13
2022-09-28T04:42:56.160Z,98443.66
2022-09-28T04:45:26.135Z,98455.69
2022-09-28T04:47:54.655Z,98457.88
2022-09-28T04:50:22.749Z,98462.47
2022-09-28T04:52:50.675Z,98472.97
2022-09-28T04:55:20.738Z,98475.31
2022-09-28T04:57:48.760Z,98479.66
2022-09-28T05:00:18.491Z,98487.94
2022-09-28T05:02:47.055Z,98492.66
2022-09-28T05:05:15.125Z,98500.41
2022-09-28T05:07:43.093Z,98499.69
2022-09-28T05:10:11.204Z,98500.13
2022-09-28T05:12:41.189Z,98501.28
2022-09-28T05:15:09.559Z,98483.41
2022-09-28T05:17:37.581Z,98484.13
2022-09-28T05:20:06.568Z,98480.09
2022-09-28T05:22:34.846Z,98474.28
2022-09-28T05:25:03.031Z,98476.56
2022-09-28T05:27:31.128Z,98474.53
2022-09-28T05:30:00.542Z,98483.88
2022-09-28T05:32:28.537Z,98487.66
2022-09-28T05:34:56.993Z,98494.91
2022-09-28T05:37:26.003Z,98500.25
2022-09-28T05:39:54.071Z,98499.81
2022-09-28T05:42:22.226Z,98497.84
2022-09-28T05:44:50.474Z,98502.88
2022-09-28T05:47:20.118Z,98502.06
2022-09-28T05:49:48.207Z,98507.09
2022-09-28T05:52:16.218Z,98498.50
2022-09-28T05:54:44.339Z,98499.66
2022-09-28T05:57:12.780Z,98501.94
2022-09-28T05:59:40.812Z,98508.78
2022-09-28T06:02:08.928Z,98502.44
2022-09-28T06:04:38.453Z,98502.75
2022-09-28T06:07:06.593Z,98506.53
2022-09-28T06:09:34.592Z,98510.72
2022-09-28T06:12:03.762Z,98518.34
2022-09-28T06:14:32.329Z,98516.78
2022-09-28T06:17:00.535Z,98516.78
2022-09-28T06:19:28.764Z,98509.28
2022-09-28T06:21:59.714Z,98510.34
2022-09-28T06:24:27.686Z,98514.22
2022-09-28T06:26:55.711Z,98511.72
2022-09-28T06:29:23.704Z,98517.44
2022-09-28T06:31:51.680Z,98508.91
2022-09-28T06:34:21.505Z,98517.81
2022-09-28T06:36:49.484Z,98514.22
2022-09-28T06:39:18.962Z,98519.41
2022-09-28T06:41:47.045Z,98524.09
2022-09-28T06:44:15.390Z,98522.91
2022-09-28T06:46:43.534Z,98530.84
2022-09-28T06:49:14.195Z,98539.91
2022-09-28T06:51:47.373Z,98537.31
2022-09-28T06:54:15.583Z,98535.25
2022-09-28T06:56:44.994Z,98529.44
2022-09-28T06:59:13.061Z,98533.63
2022-09-28T07:01:41.202Z,98525.09
2022-09-28T07:04:09.264Z,98520.94
2022-09-28T07:06:38.624Z,98515.19
2022-09-28T07:09:26.257Z,98520.19
2022-09-28T07:11:56.867Z,98517.47
2022-09-28T07:14:44.621Z,98514.34
2022-09-28T07:17:14.940Z,98517.03
2022-09-28T07:19:43.418Z,98515.19
2022-09-28T07:22:18.855Z,98515.53
2022-09-28T07:24:48.236Z,98515.53
2022-09-28T07:27:18.083Z,98514.97
2022-09-28T07:29:46.046Z,98516.41
2022-09-28T07:32:14.089Z,98505.56
2022-09-28T07:34:43.874Z,98514.56
2022-09-28T07:37:12.548Z,98512.84
2022-09-28T07:39:54.768Z,98514.13
2022-09-28T07:42:24.596Z,98508.38
2022-09-28T07:44:52.802Z,98517.91
2022-09-28T07:47:30.846Z,98515.31
2022-09-28T07:50:00.548Z,98510.00
2022-09-28T07:52:28.933Z,98521.50
2022-09-28T07:54:57.002Z,98512.88
2022-09-28T07:57:26.499Z,98511.91
2022-09-28T07:59:54.908Z,98511.09
2022-09-28T08:02:23.186Z,98512.00
2022-09-28T08:04:51.750Z,98514.09
2022-09-28T08:07:23.628Z,98505.44
2022-09-28T08:09:52.119Z,98511.31
2022-09-28T08:12:21.251Z,98513.41
2022-09-28T08:14:52.292Z,98512.19
2022-09-28T08:17:20.420Z,98513.72
2022-09-28T08:20:05.565Z,98515.78
2022-09-28T08:22:33.559Z,98515.47
2022-09-28T08:25:01.524Z,98514.47
2022-09-28T08:27:29.495Z,98521.41
2022-09-28T08:29:59.073Z,98509.41
2022-09-28T08:32:27.061Z,98517.88
2022-09-28T08:34:56.104Z,98522.28
2022-09-28T08:37:24.135Z,98513.94
2022-09-28T08:39:52.250Z,98521.34
2022-09-28T08:42:34.238Z,98513.22
2022-09-28T08:45:09.989Z,98509.69
2022-09-28T08:48:05.946Z,98510.66
2022-09-28T08:50:38.042Z,98511.28
2022-09-28T08:53:20.946Z,98514.81
2022-09-28T08:55:49.495Z,98507.41
2022-09-28T08:58:21.615Z,98507.78
2022-09-28T09:00:53.519Z,98509.06
2022-09-28T09:03:24.675Z,98506.63
2022-09-28T09:06:05.188Z,98504.88
2022-09-28T09:08:50.443Z,98505.03
2022-09-28T09:11:32.114Z,98509.84
2022-09-28T09:14:23.153Z,98504.22
2022-09-28T09:17:01.188Z,98504.38
2022-09-28T09:19:36.788Z,98502.84
2022-09-28T09:22:15.292Z,98511.16
2022-09-28T09:24:50.203Z,98507.16
2022-09-28T09:27:37.642Z,98508.44
2022-09-28T09:30:11.131Z,98502.91
2022-09-28T09:32:59.812Z,98500.78
2022-09-28T09:35:47.587Z,98498.94
2022-09-28T09:38:33.086Z,98496.19
2022-09-28T09:44:12.178Z,98496.66
2022-09-28T09:46:46.933Z,98497.84
2022-09-28T09:49:20.849Z,98500.75
2022-09-28T09:51:54.082Z,98495.06
2022-09-28T09:54:26.250Z,98493.34
2022-09-28T09:56:58.883Z,98488.75
2022-09-28T09:59:33.653Z,98483.50
2022-09-28T10:02:03.934Z,98487.31
2022-09-28T10:04:39.032Z,98483.91
2022-09-28T10:07:10.713Z,98483.03
2022-09-28T10:09:44.100Z,98484.38
2022-09-28T10:12:20.061Z,98475.16
2022-09-28T10:14:48.335Z,98482.75
2022-09-28T10:17:19.780Z,98473.94
2022-09-28T10:19:49.203Z,98474.56
2022-09-28T10:22:21.990Z,98477.75
2022-09-28T10:24:53.164Z,98478.50
2022-09-28T10:27:25.181Z,98483.94
2022-09-28T10:29:56.558Z,98470.13
2022-09-28T10:32:25.949Z,98473.91
2022-09-28T10:35:22.809Z,98465.22
2022-09-28T10:37:54.632Z,98464.50
2022-09-28T10:40:43.761Z,98465.56
2022-09-28T10:43:25.789Z,98463.25
2022-09-28T10:46:02.977Z,98449.13
2022-09-28T10:48:40.085Z,98452.59
2022-09-28T10:51:10.004Z,98453.91
2022-09-28T10:53:38.507Z,98448.03
2022-09-28T10:56:08.908Z,98451.63
2022-09-28T10:58:40.592Z,98445.44
2022-09-28T11:01:12.063Z,98427.75
2022-09-28T11:03:51.158Z,98418.19
2022-09-28T11:06:28.411Z,98427.47
2022-09-28T11:08:58.769Z,98419.84
2022-09-28T11:11:27.209Z,98416.59
2022-09-28T11:14:00.488Z,98420.44
2022-09-28T11:16:30.881Z,98419.47
2022-09-28T11:19:04.272Z,98416.91
2022-09-28T11:21:43.434Z,98410.28
2022-09-28T11:24:21.606Z,98401.72
2022-09-28T11:26:53.700Z,98405.91
2022-09-28T11:29:26.913Z,98395.38
2022-09-28T11:32:00.355Z,98398.44
2022-09-28T11:34:54.927Z,98382.69
2022-09-28T11:37:43.552Z,98382.00
2022-09-28T11:40:24.137Z,98379.53
2022-09-28T11:43:02.022Z,98387.75
2022-09-28T11:45:42.481Z,98373.78
2022-09-28T11:48:15.643Z,98384.53
2022-09-28T11:50:50.684Z,98375.50
2022-09-28T11:53:26.802Z,98378.38
2022-09-28T11:56:04.219Z,98380.28
2022-09-28T11:58:36.643Z,98371.31
2022-09-28T12:01:09.907Z,98377.03
2022-09-28T12:03:43.223Z,98362.13
2022-09-28T12:06:16.991Z,98371.50
2022-09-28T12:08:52.388Z,98365.97
2022-09-28T12:11:25.006Z,98362.88
2022-09-28T12:13:56.168Z,98363.72
2022-09-28T12:16:53.522Z,98357.13
2022-09-28T12:19:20.305Z,98348.94
2022-09-28T12:21:51.856Z,98355.31
2022-09-28T12:24:26.160Z,98349.84
2022-09-28T12:27:00.586Z,98343.63
2022-09-28T12:29:34.400Z,98346.28
2022-09-28T12:32:11.068Z,98345.75
2022-09-28T12:34:39.200Z,98347.00
2022-09-28T12:37:30.768Z,98339.84
2022-09-28T12:40:23.480Z,98345.59
2022-09-28T12:43:07.549Z,98334.09
2022-09-28T12:46:11.090Z,98330.63
2022-09-28T12:49:47.243Z,98331.69
2022-09-28T12:51:50.584Z,98336.84
2022-09-28T12:54:43.193Z,98324.19
2022-09-28T12:57:32.006Z,98330.22
2022-09-28T13:00:06.066Z,98334.41
2022-09-28T13:03:09.044Z,98336.28
2022-09-28T13:06:20.255Z,98336.84
2022-09-28T13:09:05.826Z,98325.16
2022-09-28T13:11:42.610Z,98329.41
2022-09-28T13:14:38.045Z,98326.28
2022-09-28T13:17:17.295Z,98328.78
2022-09-28T13:19:52.033Z,98328.00
2022-09-28T13:22:29.841Z,98326.72
2022-09-28T13:25:03.791Z,98331.00
2022-09-28T13:27:38.230Z,98328.22
2022-09-28T13:30:08.998Z,98324.88
2022-09-28T13:32:39.124Z,98326.38
2022-09-28T13:35:07.708Z,98330.59
2022-09-28T13:37:35.731Z,98331.09
2022-09-28T13:40:06.297Z,98327.88
2022-09-28T13:43:00.507Z,98325.78
2022-09-28T13:45:41.047Z,98328.38
2022-09-28T13:48:16.117Z,98322.25
2022-09-28T13:51:06.136Z,98322.75
2022-09-28T13:53:58.882Z,98319.75
2022-09-28T13:56:37.934Z,98320.25
2022-09-28T13:59:17.463Z,98312.81
2022-09-28T14:01:55.873Z,98318.94
2022-09-28T14:04:26.359Z,98316.16
2022-09-28T14:06:57.992Z,98320.81
2022-09-28T14:09:43.458Z,98318.75
2022-09-28T14:12:45.712Z,98324.09
2022-09-28T14:15:43.418Z,98327.09
2022-09-28T14:18:29.947Z,98326.38
2022-09-28T14:21:22.904Z,98326.59
2022-09-28T14:24:09.111Z,98320.97
2022-09-28T14:27:18.749Z,98323.97
2022-09-28T14:29:56.028Z,98321.19
2022-09-28T14:32:26.912Z,98318.88
2022-09-28T14:35:04.615Z,98325.69
2022-09-28T14:37:53.196Z,98327.63
2022-09-28T14:40:41.605Z,98330.03
2022-09-28T14:43:25.536Z,98333.19
2022-09-28T14:46:28.458Z,98329.06
2022-09-28T14:48:58.411Z,98329.97
2022-09-28T14:52:04.576Z,98331.84
2022-09-28T14:54:53.597Z,98337.41
2022-09-28T14:57:25.556Z,98336.47
2022-09-28T14:59:54.402Z,98337.06
2022-09-28T15:02:26.581Z,98338.72
2022-09-28T15:05:00.414Z,98344.47
2022-09-28T15:07:34.377Z,98341.31
2022-09-28T15:10:02.746Z,98332.38
2022-09-28T15:12:32.178Z,98341.38
2022-09-28T15:15:02.804Z,98341.94
2022-09-28T15:17:39.154Z,98347.31
2022-09-28T15:20:30.177Z,98342.53
2022-09-28T15:23:01.112Z,98351.41
2022-09-28T15:25:31.911Z,98351.69
2022-09-28T15:28:04.665Z,98344.72
2022-09-28T15:30:33.941Z,98350.16
2022-09-28T15:33:18.191Z,98348.94
2022-09-28T15:35:50.935Z,98349.59
2022-09-28T15:38:20.448Z,98353.03
2022-09-28T15:40:48.809Z,98350.16
2022-09-28T15:43:29.121Z,98359.88
2022-09-28T15:46:02.791Z,98358.53
2022-09-28T15:48:34.444Z,98361.19
2022-09-28T15:51:10.937Z,98360.78
2022-09-28T15:53:47.770Z,98370.47
2022-09-28T15:56:15.780Z,98367.59
2022-09-28T15:58:44.358Z,98373.78
2022-09-28T16:01:27.453Z,98372.13
2022-09-28T16:03:55.769Z,98363.22
2022-09-28T16:06:24.280Z,98366.91
2022-09-28T16:08:53.886Z,98363.13
2022-09-28T16:11:24.272Z,98364.88
2022-09-28T16:14:01.620Z,98366.44
2022-09-28T16:16:31.954Z,98365.22
2022-09-28T16:19:01.921Z,98372.78
2022-09-28T16:21:43.793Z,98379.88
2022-09-28T16:24:22.821Z,98374.19
2022-09-28T16:26:58.569Z,98375.00
2022-09-28T16:29:29.535Z,98374.50
2022-09-28T16:31:57.532Z,98375.59
2022-09-28T16:34:27.307Z,98377.91
2022-09-28T16:36:55.857Z,98381.78
2022-09-28T16:39:25.524Z,98384.84
2022-09-28T16:41:56.403Z,98383.16
2022-09-28T16:44:27.056Z,98388.53
2022-09-28T16:47:00.765Z,98379.31
2022-09-28T16:49:31.849Z,98392.50
2022-09-28T16:52:00.445Z,98395.13
2022-09-28T16:54:48.299Z,98388.19
2022-09-28T16:57:16.670Z,98390.34
2022-09-28T16:59:45.180Z,98396.03
2022-09-28T17:02:42.106Z,98386.19
2022-09-28T17:05:07.612Z,98396.03
2022-09-28T17:07:35.776Z,98394.03
2022-09-28T17:10:15.826Z,98392.03
2022-09-28T17:12:44.429Z,98390.66
2022-09-28T17:15:13.251Z,98388.19
2022-09-28T17:17:41.858Z,98389.91
2022-09-28T17:20:23.221Z,98385.44
2022-09-28T17:22:51.999Z,98385.56
2022-09-28T17:25:23.120Z,98392.00
2022-09-28T17:27:52.584Z,98387.09
2022-09-28T17:30:23.753Z,98384.00
2022-09-28T17:32:53.769Z,98384.91
2022-09-28T17:35:24.616Z,98379.22
2022-09-28T17:37:53.707Z,98379.38
2022-09-28T17:40:25.335Z,98380.75
2022-09-28T17:42:56.744Z,98390.72
2022-09-28T17:45:27.065Z,98396.38
2022-09-28T17:47:55.345Z,98396.06
2022-09-28T17:50:26.355Z,98396.97
2022-09-28T17:52:55.005Z,98405.69
2022-09-28T17:55:28.935Z,98402.94
2022-09-28T17:57:57.678Z,98413.97
2022-09-28T18:00:27.865Z,98414.28
2022-09-28T18:02:56.751Z,98410.91
2022-09-28T18:05:25.692Z,98415.03
2022-09-28T18:07:53.791Z,98413.00
2022-09-28T18:10:24.153Z,98420.69
2022-09-28T18:12:53.542Z,98419.44
2022-09-28T18:15:21.879Z,98413.56
2022-09-28T18:17:50.108Z,98421.66
2022-09-28T18:20:18.239Z,98425.13
2022-09-28T18:22:46.396Z,98423.84
2022-09-28T18:25:14.393Z,98429.28
2022-09-28T18:27:42.680Z,98431.41
2022-09-28T18:30:13.875Z,98423.72
2022-09-28T18:32:41.829Z,98432.88
2022-09-28T18:35:11.268Z,98437.31
2022-09-28T18:37:41.201Z,98435.88
2022-09-28T18:40:12.841Z,98441.66
2022-09-28T18:42:41.017Z,98439.16
2022-09-28T18:45:12.570Z,98447.56
2022-09-28T18:47:41.051Z,98440.63
2022-09-28T18:50:11.622Z,98449.34
2022-09-28T18:52:40.213Z,98451.50
2022-09-28T18:55:09.537Z,98453.25
2022-09-28T18:57:37.894Z,98462.53
2022-09-28T19:00:08.975Z,98463.63
2022-09-28T19:02:39.173Z,98466.38
2022-09-28T19:05:08.973Z,98466.38
2022-09-28T19:07:37.406Z,98467.59
2022-09-28T19:10:06.302Z,98468.38
2022-09-28T19:12:34.633Z,98465.19
2022-09-28T19:15:02.777Z,98473.88
2022-09-28T19:17:30.936Z,98475.09
2022-09-28T19:20:00.534Z,98470.03
2022-09-28T19:22:28.996Z,98466.38
2022-09-28T19:24:57.016Z,98464.84
2022-09-28T19:27:24.962Z,98472.03
2022-09-28T19:29:52.976Z,98470.88
2022-09-28T19:32:20.960Z,98467.38
2022-09-28T19:34:48.923Z,98469.41
2022-09-28T19:37:18.311Z,98471.47
2022-09-28T19:39:46.527Z,98472.09
2022-09-28T19:42:14.564Z,98475.00
2022-09-28T19:44:42.517Z,98473.66
2022-09-28T19:47:11.735Z,98482.41
2022-09-28T19:49:41.073Z,98477.50
2022-09-28T19:52:17.387Z,98485.78
2022-09-28T19:54:56.954Z,98485.38
2022-09-28T19:57:26.103Z,98494.63
2022-09-28T19:59:57.877Z,98483.25
2022-09-28T20:02:29.190Z,98496.81
2022-09-28T20:04:57.249Z,98496.72
2022-09-28T20:07:25.233Z,98503.94
2022-09-28T20:09:54.995Z,98501.56
2022-09-28T20:12:24.009Z,98502.78
2022-09-28T20:14:51.985Z,98507.22
2022-09-28T20:17:21.775Z,98503.25
2022-09-28T20:19:51.813Z,98505.00
2022-09-28T20:22:20.137Z,98498.19
2022-09-28T20:24:48.328Z,98514.25
2022-09-28T20:27:17.770Z,98503.00
2022-09-28T20:29:45.724Z,98489.25
2022-09-28T20:32:14.336Z,98486.63
2022-09-28T20:34:42.350Z,98493.13
2022-09-28T20:37:13.753Z,98490.59
2022-09-28T20:39:44.924Z,98492.03
2022-09-28T20:42:14.397Z,98495.97
2022-09-28T20:44:44.275Z,98491.69
2022-09-28T20:47:12.228Z,98498.72
2022-09-28T20:49:40.211Z,98489.84
2022-09-28T20:52:08.157Z,98496.09
2022-09-28T20:54:36.273Z,98490.16
2022-09-28T20:57:17.355Z,98491.63
2022-09-28T20:59:49.777Z,98502.84
2022-09-28T21:02:21.808Z,98503.09
2022-09-28T21:04:49.819Z,98501.66
2022-09-28T21:07:17.758Z,98499.75
2022-09-28T21:09:45.799Z,98507.03
2022-09-28T21:12:15.533Z,98507.03
2022-09-28T21:14:43.500Z,98507.28
2022-09-28T21:17:12.906Z,98511.53
2022-09-28T21:19:40.890Z,98514.94
2022-09-28T21:22:08.836Z,98519.25
2022-09-28T21:24:37.012Z,98519.78
2022-09-28T21:27:05.183Z,98517.94
2022-09-28T21:29:33.131Z,98534.22
2022-09-28T21:32:01.334Z,98540.00
2022-09-28T21:34:30.898Z,98537.13
2022-09-28T21:36:59.025Z,98546.78
2022-09-28T21:39:27.012Z,98537.59
2022-09-28T21:41:54.985Z,98537.09
2022-09-28T21:44:23.006Z,98535.22
2022-09-28T21:46:51.159Z,98542.31
2022-09-28T21:49:19.361Z,98537.72
2022-09-28T21:51:48.688Z,98540.06
2022-09-28T21:54:16.726Z,98535.16
2022-09-28T21:56:44.702Z,98534.22
2022-09-28T21:59:12.672Z,98529.06
2022-09-28T22:01:42.982Z,98531.31
2022-09-28T22:04:11.855Z,98535.69
2022-09-28T22:06:39.932Z,98535.78
2022-09-28T22:09:09.516Z,98532.31
2022-09-28T22:11:38.247Z,98523.41
2022-09-28T22:14:06.223Z,98525.81
2022-09-28T22:16:34.383Z,98517.41
2022-09-28T22:19:02.350Z,98525.69
2022-09-28T22:21:31.901Z,98516.72
2022-09-28T22:24:02.055Z,98506.69
2022-09-28T22:26:33.661Z,98520.53
2022-09-28T22:29:03.718Z,98525.00
2022-09-28T22:31:34.229Z,98523.47
2022-09-28T22:34:02.749Z,98526.44
2022-09-28T22:36:31.112Z,98527.31
2022-09-28T22:38:59.650Z,98518.81
2022-09-28T22:41:28.398Z,98520.13
2022-09-28T22:43:57.834Z,98525.16
2022-09-28T22:46:27.409Z,98515.81
2022-09-28T22:48:57.469Z,98515.97
2022-09-28T22:51:26.971Z,98524.97
2022-09-28T22:53:54.991Z,98523.56
2022-09-28T22:56:23.175Z,98516.28
2022-09-28T22:58:51.279Z,98521.03
2022-09-28T23:01:22.571Z,98517.59
2022-09-28T23:03:51.637Z,98524.34
2022-09-28T23:06:21.390Z,98526.72
2022-09-28T23:08:50.497Z,98525.03
2022-09-28T23:11:18.918Z,98529.81
2022-09-28T23:13:50.173Z,98527.50
2022-09-28T23:16:18.526Z,98532.28
2022-09-28T23:18:49.469Z,98532.69
2022-09-28T23:21:19.298Z,98532.84
2022-09-28T23:23:52.017Z,98534.09
2022-09-28T23:26:22.301Z,98538.44
2022-09-28T23:28:50.280Z,98545.97
2022-09-28T23:31:20.362Z,98534.28
2022-09-28T23:33:50.163Z,98526.53
2022-09-28T23:36:18.836Z,98528.22
2022-09-28T23:38:46.790Z,98529.91
2022-09-28T23:41:14.754Z,98532.28
2022-09-28T23:43:42.664Z,98530.75
2022-09-28T23:46:10.708Z,98522.97
2022-09-28T23:48:38.780Z,98521.44
2022-09-28T23:51:08.738Z,98512.97
2022-09-28T23:53:36.900Z,98517.75
2022-09-28T23:56:05.045Z,98518.94
2022-09-28T23:58:33.052Z,98512.28
